Flight Track Log - Related Links

Times and Time Zones

All times are in EDT time to prevent confusion due to time zone crossing. See the N606FT flight status page for this flight to view local times or setup timezone preferences in your user account.

Time Position Orientation Groundspeed Altitude Reporting Facility
EDT Latitude Longitude Course Direction KTS MPH feet Rate Location/Type
Fri 11:28:31 AM 28.2833 -80.8333 184° South 96 110 2,500  Level Orlando TRACON
Fri 11:29:31 AM 28.2667 -80.8500 221° Southwest 96 110 2,600  Climbing Orlando TRACON
Fri 11:30:31 AM 28.2500 -80.8833 240° Southwest 98 113 2,500 -50 Descending Orlando TRACON
Fri 11:31:31 AM 28.2333 -80.9000 221° Southwest 95 109 2,500  Level Orlando TRACON
Fri 11:32:32 AM 28.2167 -80.9333 240° Southwest 95 109 2,500 99 Level Orlando TRACON
Fri 11:33:00 AM 28.5661 -81.6436 184° South  Level FlightAware Approximate
Fri 11:33:32 AM 28.2000 -80.9500 221° Southwest 91 105 2,700  Level Orlando TRACON
Fri 11:34:32 AM 28.1833 -80.9667 221° Southwest 111 128 2,500 -100 Descending Orlando TRACON
Fri 11:35:32 AM 28.1500 -80.9833 204° Southwest 96 110 2,500  Level Orlando TRACON
Fri 11:36:38 AM 28.1333 -81.0167 240° Southwest 96 110 2,500  Level Orlando TRACON
Fri 11:37:39 AM 28.1167 -81.0333 221° Southwest 97 112 2,500  Level Orlando TRACON
Fri 11:38:39 AM 28.1000 -81.0500 221° Southwest 98 113 2,500  Level Orlando TRACON
Fri 11:39:39 AM 28.0833 -81.0833 240° Southwest 100 115 2,500  Level Orlando TRACON
Fri 11:40:39 AM 28.0667 -81.1000 221° Southwest 100 115 2,500  Level Orlando TRACON
Fri 11:41:39 AM 28.0500 -81.1167 221° Southwest 99 114 2,500  Level Orlando TRACON
Fri 11:42:27 AM 28.0219 -81.1419 218° Southwest 96 110 2,500 56 Level Miami Center
Fri 11:43:27 AM 27.9983 -81.1622 217° Southwest 96 110 2,600  Climbing Miami Center
Fri 11:44:27 AM 27.9769 -81.1803 217° Southwest 102 117 2,500 -50 Descending Miami Center
Fri 11:45:27 AM 27.9594 -81.2056 232° Southwest 107 123 2,500  Level Miami Center
Fri 11:46:27 AM 27.9778 -81.2228 320° Northwest 68 78 2,500  Level Miami Center
Fri 11:47:27 AM 28.0031 -81.2072 29° Northeast 60 69 2,500  Level Miami Center
Fri 11:48:27 AM 27.9844 -81.2017 165° South 22 25 2,500  Level Miami Center
Fri 11:49:27 AM 27.9631 -81.2222 220° Southwest 54 62 2,500  Level Miami Center
Fri 11:50:27 AM 27.9356 -81.2375 206° Southwest 93 107 2,500  Level Miami Center
Fri 11:51:27 AM 27.9119 -81.2531 210° Southwest 105 121 2,500  Level Miami Center
Fri 11:52:27 AM 27.8906 -81.2758 223° Southwest 105 121 2,500 -50 Level Miami Center
Fri 11:53:27 AM 27.8711 -81.2961 223° Southwest 105 121 2,400  Descending Miami Center
Fri 11:54:27 AM 27.8494 -81.3186 223° Southwest 105 121 2,500 50 Climbing Miami Center
Fri 11:55:27 AM 27.8300 -81.3392 223° Southwest 105 121 2,500  Level Miami Center
Fri 11:56:27 AM 27.8086 -81.3594 220° Southwest 105 121 2,500  Level Miami Center
Fri 11:57:27 AM 27.7892 -81.3819 226° Southwest 105 121 2,500  Level Miami Center
Fri 11:58:27 AM 27.7717 -81.4047 229° Southwest 105 121 2,500  Level Miami Center
Fri 11:59:27 AM 27.7503 -81.4250 220° Southwest 105 121 2,500  Level Miami Center
Fri 12:00:27 PM 27.7286 -81.4431 216° Southwest 105 121 2,500  Level Miami Center
Fri 12:01:27 PM 27.7053 -81.4583 210° Southwest 100 115 2,500 -50 Level Miami Center
Fri 12:02:27 PM 27.6858 -81.4811 226° Southwest 100 115 2,400 -50 Descending Miami Center
Fri 12:03:27 PM 27.6664 -81.5036 226° Southwest 100 115 2,400 100 Level Miami Center
Fri 12:04:27 PM 27.6489 -81.5264 229° Southwest 100 115 2,600 100 Climbing Miami Center
Fri 12:05:27 PM 27.6314 -81.5517 232° Southwest 100 115 2,600 -50 Level Miami Center
Fri 12:06:27 PM 27.6136 -81.5789 234° Southwest 105 121 2,500 -50 Descending Miami Center
Fri 12:07:27 PM 27.5942 -81.6017 226° Southwest 105 121 2,500  Level Miami Center
Fri 12:08:27 PM 27.5747 -81.6217 222° Southwest 110 127 2,500  Level Miami Center
Fri 12:09:27 PM 27.5531 -81.6444 223° Southwest 110 127 2,500  Level Miami Center
Fri 12:10:27 PM 27.5317 -81.6669 223° Southwest 110 127 2,500  Level Miami Center
Fri 12:11:27 PM 27.5139 -81.6919 231° Southwest 110 127 2,500 -50 Level Miami Center
Fri 12:12:27 PM 27.4925 -81.7097 216° Southwest 105 121 2,400  Descending Miami Center
Fri 12:13:27 PM 27.4672 -81.7203 200° South 100 115 2,500 100 Climbing Miami Center
Fri 12:14:27 PM 27.4400 -81.7239 187° South 95 109 2,600  Climbing Miami Center
Fri 12:15:27 PM 27.4106 -81.7272 186° South 101 116 2,500 -50 Descending Miami Center
Fri 12:16:27 PM 27.3853 -81.7356 196° South 101 116 2,500  Level Miami Center
Fri 12:17:27 PM 27.3578 -81.7436 195° South 106 122 2,500  Level Miami Center
Fri 12:18:27 PM 27.3347 -81.7497 193° South 106 122 2,500 50 Level Miami Center
Fri 12:19:27 PM 27.3008 -81.7600 195° South 106 122 2,600 -50 Climbing Miami Center
Fri 12:20:27 PM 27.2714 -81.7681 194° South 106 122 2,400 -45 Descending Miami Center
Fri 12:21:39 PM 27.2461 -81.7764 196° South 100 115 2,500 45 Climbing Miami Center
Fri 12:22:39 PM 27.2144 -81.7867 196° South 100 115 2,500  Level Miami Center
Fri 12:23:39 PM 27.1889 -81.7997 204° Southwest 100 115 2,500  Level Miami Center
Fri 12:24:39 PM 27.1636 -81.8078 196° South 100 115 2,500  Level Miami Center
Fri 12:25:39 PM 27.1364 -81.8136 191° South 100 115 2,500 -100 Level Miami Center
Fri 12:26:39 PM 27.1092 -81.8172 187° South 100 115 2,300  Descending Miami Center
Fri 12:27:39 PM 27.0839 -81.8231 192° South 100 115 2,500 100 Climbing Miami Center
Fri 12:28:39 PM 27.0564 -81.8267 187° South 106 122 2,500 -50 Level Miami Center
Fri 12:29:39 PM 27.0292 -81.8325 191° South 106 122 2,400  Descending Miami Center
Fri 12:30:39 PM 27.0039 -81.8383 192° South 106 122 2,500 100 Climbing Miami Center

Login

Don't have an account? Register now (free) for customized features, flight alerts, and more!